createdAt,value
2019-01-29T00:01:04.910Z,3.10
2019-01-29T00:06:20.601Z,3.17
2019-01-29T00:11:36.812Z,3.67
2019-01-29T00:16:52.624Z,3.83
2019-01-29T00:22:06.345Z,3.90
2019-01-29T00:27:29.109Z,3.90
2019-01-29T00:32:52.109Z,3.57
2019-01-29T00:38:14.868Z,3.30
2019-01-29T00:43:30.466Z,3.50
2019-01-29T00:48:46.416Z,2.63
2019-01-29T00:54:02.049Z,3.20
2019-01-29T00:59:18.217Z,3.33
2019-01-29T01:04:34.325Z,3.07
2019-01-29T01:09:57.128Z,3.07
2019-01-29T01:15:07.671Z,2.80
2019-01-29T01:20:23.814Z,2.93
2019-01-29T01:25:39.290Z,2.77
2019-01-29T01:30:55.374Z,3.00
2019-01-29T01:36:10.801Z,2.67
2019-01-29T01:41:26.694Z,2.83
2019-01-29T01:46:42.481Z,2.50
2019-01-29T01:51:58.569Z,3.10
2019-01-29T01:57:14.421Z,2.77
2019-01-29T02:02:30.773Z,2.80
2019-01-29T02:07:45.917Z,2.77
2019-01-29T02:13:01.377Z,3.23
2019-01-29T02:18:16.834Z,2.67
2019-01-29T02:23:32.412Z,2.63
2019-01-29T02:28:48.493Z,2.77
2019-01-29T02:34:03.687Z,3.20
2019-01-29T02:39:19.715Z,3.77
2019-01-29T02:44:37.130Z,2.90
2019-01-29T02:49:53.268Z,3.90
2019-01-29T02:55:08.876Z,3.57
2019-01-29T03:00:24.582Z,5.80
2019-01-29T03:05:40.159Z,7.03
2019-01-29T03:10:55.627Z,5.97
2019-01-29T03:16:11.725Z,7.37
2019-01-29T03:21:27.740Z,9.37
2019-01-29T03:32:14.158Z,7.67
2019-01-29T03:37:29.702Z,8.40
2019-01-29T03:42:45.153Z,9.67
2019-01-29T03:48:00.968Z,9.47
2019-01-29T03:53:16.602Z,10.70
2019-01-29T03:58:32.034Z,10.87
2019-01-29T04:03:47.696Z,12.70
2019-01-29T04:09:04.765Z,13.67
2019-01-29T04:14:20.620Z,12.30
2019-01-29T04:19:36.205Z,14.13
2019-01-29T04:24:52.226Z,12.67
2019-01-29T04:30:08.226Z,14.17
2019-01-29T04:35:23.501Z,14.97
2019-01-29T04:40:39.457Z,12.90
2019-01-29T04:45:55.765Z,15.30
2019-01-29T04:51:09.733Z,15.33
2019-01-29T04:56:13.162Z,14.90
2019-01-29T05:01:35.929Z,15.17
2019-01-29T05:06:58.925Z,15.50
2019-01-29T05:12:21.942Z,15.40
2019-01-29T05:17:44.729Z,15.30
2019-01-29T05:23:07.796Z,13.97
2019-01-29T05:28:30.814Z,13.20
2019-01-29T05:33:53.850Z,14.37
2019-01-29T05:39:16.853Z,14.60
2019-01-29T05:44:32.678Z,12.93
2019-01-29T05:49:48.232Z,13.83
2019-01-29T05:55:04.021Z,16.33
2019-01-29T06:00:19.988Z,16.37
2019-01-29T06:05:35.445Z,17.57
2019-01-29T06:10:51.415Z,16.37
2019-01-29T06:16:07.323Z,16.07
2019-01-29T06:21:22.883Z,16.60
2019-01-29T06:26:38.613Z,17.13
2019-01-29T06:31:54.660Z,16.70
2019-01-29T06:37:10.210Z,17.03
2019-01-29T06:42:25.961Z,15.87
2019-01-29T06:47:42.092Z,17.70
2019-01-29T06:52:57.331Z,15.20
2019-01-29T06:58:12.798Z,16.10
2019-01-29T07:03:29.036Z,15.80
2019-01-29T07:08:44.664Z,14.10
2019-01-29T07:14:00.786Z,15.23
2019-01-29T07:19:18.191Z,16.50
2019-01-29T07:24:42.415Z,15.83
2019-01-29T07:29:52.077Z,13.90
2019-01-29T07:35:07.520Z,15.67
2019-01-29T07:40:22.817Z,17.70
2019-01-29T07:45:38.561Z,17.93
2019-01-29T07:50:54.434Z,17.73
2019-01-29T07:56:10.045Z,18.50
2019-01-29T08:01:25.360Z,17.33
2019-01-29T08:06:42.277Z,17.67
2019-01-29T08:11:58.817Z,17.20
2019-01-29T08:17:14.801Z,18.37
2019-01-29T08:22:30.046Z,17.40
2019-01-29T08:27:46.029Z,17.37
2019-01-29T08:33:01.874Z,17.03
2019-01-29T08:38:17.668Z,17.17
2019-01-29T08:43:33.991Z,18.33
2019-01-29T08:48:51.066Z,19.20
2019-01-29T08:54:06.914Z,18.87
2019-01-29T08:59:22.171Z,18.37
2019-01-29T09:04:37.787Z,16.97
2019-01-29T09:09:53.856Z,17.77
2019-01-29T09:15:09.227Z,16.60
2019-01-29T09:20:26.094Z,15.53
2019-01-29T09:25:41.425Z,13.70
2019-01-29T09:30:57.150Z,12.13
2019-01-29T09:36:13.092Z,13.67
2019-01-29T09:41:28.848Z,13.70
2019-01-29T09:46:44.796Z,12.60
2019-01-29T09:52:00.407Z,10.97
2019-01-29T09:57:16.536Z,10.37
2019-01-29T10:02:31.819Z,12.63
2019-01-29T10:07:48.000Z,13.37
2019-01-29T10:13:04.271Z,11.37
2019-01-29T10:18:19.950Z,11.20
2019-01-29T10:23:35.530Z,10.70
2019-01-29T10:28:51.861Z,10.73
2019-01-29T10:34:07.273Z,12.23
2019-01-29T10:39:22.490Z,12.17
2019-01-29T10:44:37.696Z,12.57
2019-01-29T10:49:53.194Z,11.50
2019-01-29T10:55:08.913Z,12.53
2019-01-29T11:00:24.482Z,11.97
2019-01-29T11:05:39.821Z,12.07
2019-01-29T11:10:55.710Z,11.90
2019-01-29T11:16:11.001Z,11.47
2019-01-29T11:21:26.719Z,9.63
2019-01-29T11:26:42.474Z,9.87
2019-01-29T11:31:57.842Z,10.20
2019-01-29T11:37:13.688Z,10.20
2019-01-29T11:42:29.845Z,8.37
2019-01-29T11:47:45.693Z,5.30
2019-01-29T11:53:01.014Z,5.03
2019-01-29T11:58:16.378Z,6.73
2019-01-29T12:03:31.773Z,5.80
2019-01-29T12:08:47.950Z,6.03
2019-01-29T12:14:03.365Z,6.07
2019-01-29T12:19:18.830Z,5.63
2019-01-29T12:24:34.184Z,5.97
2019-01-29T12:29:49.753Z,3.70
2019-01-29T12:35:05.625Z,5.37
2019-01-29T12:40:21.140Z,4.17
2019-01-29T12:45:37.126Z,4.30
2019-01-29T12:50:54.058Z,5.13
2019-01-29T12:56:09.589Z,3.63
2019-01-29T13:01:24.977Z,3.53
2019-01-29T13:06:41.165Z,4.10
2019-01-29T13:11:56.853Z,3.67
2019-01-29T13:17:13.266Z,2.90
2019-01-29T13:22:29.202Z,4.40
2019-01-29T13:27:44.613Z,6.47
2019-01-29T13:33:00.232Z,4.53
2019-01-29T13:38:15.674Z,3.73
2019-01-29T13:43:31.381Z,4.17
2019-01-29T13:48:47.282Z,4.93
2019-01-29T13:54:02.714Z,2.20
2019-01-29T13:59:18.801Z,2.50
2019-01-29T14:04:34.813Z,3.17
2019-01-29T14:09:50.062Z,3.50
2019-01-29T14:15:05.880Z,2.13
2019-01-29T14:20:22.238Z,4.30
2019-01-29T14:25:37.468Z,4.67
2019-01-29T14:30:53.719Z,7.23
2019-01-29T14:36:16.454Z,3.77
2019-01-29T14:41:26.761Z,1.83
2019-01-29T14:46:42.723Z,3.70
2019-01-29T14:51:58.241Z,1.60
2019-01-29T14:57:13.850Z,2.00
2019-01-29T15:02:29.730Z,3.73
2019-01-29T15:07:45.134Z,2.90
2019-01-29T15:13:01.054Z,1.87
2019-01-29T15:23:44.728Z,1.50
2019-01-29T15:29:00.973Z,2.20
2019-01-29T15:34:16.276Z,2.23
2019-01-29T15:39:31.884Z,1.60
2019-01-29T15:44:47.682Z,1.73
2019-01-29T15:50:03.267Z,1.60
2019-01-29T15:55:19.521Z,1.87
2019-01-29T16:00:34.993Z,1.80
2019-01-29T16:05:51.297Z,2.17
2019-01-29T16:11:06.715Z,1.90
2019-01-29T16:16:22.527Z,1.93
2019-01-29T16:21:37.805Z,1.93
2019-01-29T16:26:53.576Z,2.10
2019-01-29T16:32:10.854Z,1.97
2019-01-29T16:37:26.700Z,1.80
2019-01-29T16:42:42.739Z,2.43
2019-01-29T16:47:58.778Z,2.50
2019-01-29T16:53:14.726Z,2.60
2019-01-29T16:58:30.210Z,2.70
2019-01-29T17:03:45.722Z,2.97
2019-01-29T17:09:00.905Z,2.63
2019-01-29T17:14:16.914Z,2.63
2019-01-29T17:19:32.797Z,8.33
2019-01-29T17:24:48.515Z,3.30
2019-01-29T17:30:04.437Z,6.27
2019-01-29T17:35:19.801Z,3.27
2019-01-29T17:40:35.262Z,2.53
2019-01-29T17:45:50.754Z,4.23
2019-01-29T17:51:06.225Z,2.87
2019-01-29T17:56:21.761Z,3.33
2019-01-29T18:01:37.997Z,3.00
2019-01-29T18:06:53.197Z,3.07
2019-01-29T18:12:08.357Z,3.00
2019-01-29T18:17:24.618Z,6.40
2019-01-29T18:22:40.434Z,6.43
2019-01-29T18:28:01.339Z,3.13
2019-01-29T18:33:13.578Z,3.27
2019-01-29T18:38:29.213Z,7.37
2019-01-29T18:43:45.237Z,4.10
2019-01-29T18:49:00.948Z,3.80
2019-01-29T18:54:16.510Z,5.53
2019-01-29T18:59:31.926Z,3.87
2019-01-29T19:04:47.092Z,3.20
2019-01-29T19:10:03.125Z,6.17
2019-01-29T19:15:19.319Z,4.03
2019-01-29T19:20:35.218Z,4.63
2019-01-29T19:25:52.485Z,3.93
2019-01-29T19:31:08.482Z,3.37
2019-01-29T19:36:23.981Z,4.40
2019-01-29T19:41:39.694Z,7.00
2019-01-29T19:46:55.197Z,6.50
2019-01-29T19:52:11.413Z,4.73
2019-01-29T19:57:27.485Z,5.87
2019-01-29T20:02:43.045Z,5.47
2019-01-29T20:07:58.546Z,5.97
2019-01-29T20:13:14.118Z,9.90
2019-01-29T20:18:29.850Z,7.87
2019-01-29T20:23:45.663Z,4.57
2019-01-29T20:29:01.073Z,4.77
2019-01-29T20:34:17.120Z,4.37
2019-01-29T20:39:34.918Z,8.23
2019-01-29T20:44:50.197Z,7.47
2019-01-29T20:50:06.317Z,10.50
2019-01-29T20:55:22.265Z,12.37
2019-01-29T21:00:38.605Z,4.90
2019-01-29T21:11:34.294Z,14.47
2019-01-29T21:16:50.385Z,8.50
2019-01-29T21:22:05.932Z,12.17
2019-01-29T21:27:21.664Z,6.00
2019-01-29T21:32:37.390Z,9.73
2019-01-29T21:37:52.696Z,16.40
2019-01-29T21:43:08.096Z,4.70
2019-01-29T21:48:24.028Z,9.23
2019-01-29T21:53:40.345Z,8.40
2019-01-29T21:58:55.885Z,6.80
2019-01-29T22:04:11.618Z,7.43
2019-01-29T22:09:27.346Z,3.40
2019-01-29T22:14:42.907Z,6.73
2019-01-29T22:19:58.516Z,3.60
2019-01-29T22:25:14.257Z,3.83
2019-01-29T22:30:30.225Z,4.30
2019-01-29T22:35:46.150Z,8.07
2019-01-29T22:41:01.788Z,8.63
2019-01-29T22:46:17.360Z,9.43
2019-01-29T22:51:32.824Z,2.90
2019-01-29T22:56:48.124Z,3.67
2019-01-29T23:02:03.715Z,2.87
2019-01-29T23:07:19.274Z,3.07
2019-01-29T23:12:34.561Z,3.03
2019-01-29T23:17:50.232Z,3.40
2019-01-29T23:23:06.025Z,4.17
2019-01-29T23:28:21.542Z,4.13
2019-01-29T23:33:37.080Z,3.67
2019-01-29T23:38:53.016Z,3.57
2019-01-29T23:44:09.057Z,3.80
2019-01-29T23:49:24.935Z,4.23
2019-01-29T23:54:40.498Z,4.30
2019-01-29T23:59:55.961Z,4.23
